createdAt,value
2022-10-19T00:01:15.675Z,78.25
2022-10-19T00:03:44.479Z,78.42
2022-10-19T00:06:14.874Z,78.21
2022-10-19T00:08:43.074Z,78.26
2022-10-19T00:11:11.779Z,77.87
2022-10-19T00:13:41.294Z,77.53
2022-10-19T00:16:11.700Z,77.26
2022-10-19T00:18:39.866Z,77.54
2022-10-19T00:21:09.677Z,77.66
2022-10-19T00:23:37.738Z,76.42
2022-10-19T00:26:05.685Z,76.43
2022-10-19T00:28:33.994Z,76.18
2022-10-19T00:31:05.547Z,75.77
2022-10-19T00:33:33.562Z,74.49
2022-10-19T00:36:01.395Z,75.19
2022-10-19T00:38:29.061Z,75.22
2022-10-19T00:40:56.701Z,76.58
2022-10-19T00:43:27.814Z,76.52
2022-10-19T00:45:55.461Z,76.92
2022-10-19T00:48:28.334Z,77.67
2022-10-19T00:50:58.267Z,76.85
2022-10-19T00:53:28.597Z,77.04
2022-10-19T00:55:58.360Z,77.19
2022-10-19T00:58:25.983Z,76.68
2022-10-19T01:00:54.080Z,76.94
2022-10-19T01:03:24.077Z,77.02
2022-10-19T01:05:52.305Z,76.03
2022-10-19T01:08:20.093Z,76.48
2022-10-19T01:10:54.992Z,76.88
2022-10-19T01:13:38.225Z,77.38
2022-10-19T01:16:13.139Z,77.62
2022-10-19T01:18:46.926Z,78.02
2022-10-19T01:21:24.563Z,77.68
2022-10-19T01:24:27.399Z,77.94
2022-10-19T01:27:18.962Z,77.94
2022-10-19T01:30:02.770Z,77.74
2022-10-19T01:32:39.337Z,76.84
2022-10-19T01:35:11.766Z,77.42
2022-10-19T01:37:47.582Z,78.29
2022-10-19T01:40:25.677Z,78.08
2022-10-19T01:43:02.340Z,78.45
2022-10-19T01:45:37.789Z,78.65
2022-10-19T01:48:11.929Z,79.09
2022-10-19T01:50:44.539Z,78.93
2022-10-19T01:53:14.769Z,79.37
2022-10-19T01:55:45.934Z,79.07
2022-10-19T01:58:19.121Z,79.17
2022-10-19T02:00:51.726Z,79.25
2022-10-19T02:03:20.659Z,79.16
2022-10-19T02:05:50.516Z,79.26
2022-10-19T02:08:23.423Z,79.39
2022-10-19T02:10:51.571Z,79.48
2022-10-19T02:13:21.767Z,79.76
2022-10-19T02:15:53.683Z,79.62
2022-10-19T02:18:27.890Z,79.88
2022-10-19T02:20:56.517Z,80.29
2022-10-19T02:23:27.456Z,80.35
2022-10-19T02:25:56.595Z,80.22
2022-10-19T02:31:00.151Z,80.13
2022-10-19T02:33:29.734Z,80.26
2022-10-19T02:35:58.704Z,80.06
2022-10-19T02:38:27.146Z,80.24
2022-10-19T02:41:04.059Z,79.94
2022-10-19T02:43:35.411Z,79.91
2022-10-19T02:46:08.411Z,79.69
2022-10-19T02:48:37.341Z,79.70
2022-10-19T02:51:05.680Z,79.76
2022-10-19T02:53:33.333Z,80.12
2022-10-19T02:56:01.000Z,79.45
2022-10-19T02:58:28.579Z,79.31
2022-10-19T03:00:56.133Z,79.46
2022-10-19T03:03:25.138Z,79.66
2022-10-19T03:05:52.675Z,79.78
2022-10-19T03:08:20.261Z,79.97
2022-10-19T03:10:47.834Z,79.89
2022-10-19T03:13:15.429Z,79.90
2022-10-19T03:15:42.962Z,80.00
2022-10-19T03:18:10.534Z,79.95
2022-10-19T03:20:39.432Z,79.57
2022-10-19T03:23:07.028Z,79.40
2022-10-19T03:25:34.608Z,78.51
2022-10-19T03:28:02.163Z,77.96
2022-10-19T03:30:29.813Z,78.03
2022-10-19T03:32:57.748Z,78.33
2022-10-19T03:35:25.342Z,78.80
2022-10-19T03:37:54.259Z,78.75
2022-10-19T03:40:21.881Z,79.21
2022-10-19T03:42:49.494Z,79.35
2022-10-19T03:45:17.185Z,79.11
2022-10-19T03:47:44.774Z,78.57
2022-10-19T03:50:14.142Z,78.91
2022-10-19T03:52:41.765Z,79.13
2022-10-19T03:55:11.356Z,79.15
2022-10-19T03:57:39.152Z,79.17
2022-10-19T04:00:07.629Z,79.19
2022-10-19T04:02:35.213Z,79.35
2022-10-19T04:05:03.547Z,79.05
2022-10-19T04:07:31.259Z,78.76
2022-10-19T04:09:59.116Z,79.12
2022-10-19T04:12:28.083Z,79.08
2022-10-19T04:14:57.802Z,79.02
2022-10-19T04:17:26.399Z,79.09
2022-10-19T04:19:53.947Z,78.96
2022-10-19T04:22:21.602Z,78.79
2022-10-19T04:24:49.198Z,78.98
2022-10-19T04:27:16.764Z,78.95
2022-10-19T04:29:45.676Z,78.77
2022-10-19T04:32:13.239Z,78.89
2022-10-19T04:34:40.867Z,78.86
2022-10-19T04:37:08.445Z,78.68
2022-10-19T04:39:39.449Z,77.65
2022-10-19T04:42:07.092Z,78.17
2022-10-19T04:44:34.718Z,78.36
2022-10-19T04:47:03.693Z,78.15
2022-10-19T04:49:31.294Z,78.29
2022-10-19T04:51:58.857Z,78.37
2022-10-19T04:54:26.456Z,78.34
2022-10-19T04:56:54.251Z,78.44
2022-10-19T04:59:21.842Z,78.86
2022-10-19T05:01:49.831Z,78.82
2022-10-19T05:04:18.739Z,78.50
2022-10-19T05:06:46.366Z,77.76
2022-10-19T05:09:14.164Z,77.23
2022-10-19T05:11:41.765Z,77.34
2022-10-19T05:14:09.433Z,77.75
2022-10-19T05:16:37.133Z,77.60
2022-10-19T05:19:04.690Z,78.14
2022-10-19T05:21:33.707Z,77.38
2022-10-19T05:24:01.262Z,77.31
2022-10-19T05:26:30.216Z,75.94
2022-10-19T05:29:01.499Z,75.13
2022-10-19T05:31:31.481Z,74.87
2022-10-19T05:33:59.612Z,74.26
2022-10-19T05:36:29.419Z,73.39
2022-10-19T05:38:59.086Z,73.36
2022-10-19T05:41:27.614Z,73.57
2022-10-19T05:43:57.478Z,74.04
2022-10-19T05:46:26.941Z,74.30
2022-10-19T05:48:56.749Z,74.65
2022-10-19T05:51:25.731Z,75.25
2022-10-19T05:53:54.122Z,75.15
2022-10-19T05:56:24.921Z,75.14
2022-10-19T05:58:52.968Z,75.49
2022-10-19T06:01:21.297Z,76.35
2022-10-19T06:03:53.458Z,76.90
2022-10-19T06:06:21.245Z,76.89
2022-10-19T06:08:49.212Z,77.04
2022-10-19T06:11:18.291Z,76.54
2022-10-19T06:13:50.303Z,77.00
2022-10-19T06:16:19.911Z,77.55
2022-10-19T06:18:47.966Z,77.79
2022-10-19T06:21:17.238Z,78.10
2022-10-19T06:23:45.076Z,78.19
2022-10-19T06:26:14.893Z,78.38
2022-10-19T06:28:44.442Z,78.64
2022-10-19T06:31:14.724Z,78.91
2022-10-19T06:33:45.973Z,79.19
2022-10-19T06:36:18.841Z,78.40
2022-10-19T06:38:46.549Z,78.65
2022-10-19T06:41:14.156Z,78.78
2022-10-19T06:43:43.138Z,78.52
2022-10-19T06:46:15.547Z,78.63
2022-10-19T06:48:43.227Z,78.60
2022-10-19T06:51:11.806Z,78.49
2022-10-19T06:53:39.419Z,78.78
2022-10-19T06:56:07.914Z,78.90
2022-10-19T06:58:36.562Z,79.09
2022-10-19T07:01:07.460Z,78.86
2022-10-19T07:03:37.742Z,78.93
2022-10-19T07:06:07.665Z,78.97
2022-10-19T07:08:36.259Z,78.53
2022-10-19T07:11:06.159Z,78.68
2022-10-19T07:13:34.098Z,78.43
2022-10-19T07:16:05.570Z,78.45
2022-10-19T07:18:33.487Z,78.33
2022-10-19T07:21:05.312Z,78.25
2022-10-19T07:23:34.936Z,77.95
2022-10-19T07:26:06.335Z,78.40
2022-10-19T07:28:35.111Z,78.38
2022-10-19T07:31:06.742Z,78.48
2022-10-19T07:33:34.618Z,78.49
2022-10-19T07:36:06.035Z,78.46
2022-10-19T07:38:34.726Z,78.65
2022-10-19T07:41:04.747Z,78.61
2022-10-19T07:43:32.750Z,78.75
2022-10-19T07:46:01.829Z,78.64
2022-10-19T07:48:29.742Z,78.76
2022-10-19T07:50:57.379Z,78.86
2022-10-19T07:53:26.607Z,79.18
2022-10-19T07:55:54.235Z,78.12
2022-10-19T07:58:21.927Z,78.55
2022-10-19T08:00:49.484Z,78.52
2022-10-19T08:06:06.517Z,78.08
2022-10-19T08:08:35.741Z,78.25
2022-10-19T08:11:07.790Z,78.79
2022-10-19T08:13:35.740Z,78.32
2022-10-19T08:16:03.374Z,78.64
2022-10-19T08:21:03.209Z,78.64
2022-10-19T08:23:30.758Z,78.99
2022-10-19T08:26:00.084Z,78.86
2022-10-19T08:28:27.659Z,78.85
2022-10-19T08:30:58.833Z,78.81
2022-10-19T08:33:27.232Z,78.45
2022-10-19T08:35:55.117Z,78.51
2022-10-19T08:38:22.777Z,77.88
2022-10-19T08:40:50.403Z,78.21
2022-10-19T08:43:24.636Z,78.35
2022-10-19T08:46:00.185Z,78.74
2022-10-19T08:48:32.867Z,79.05
2022-10-19T08:51:01.963Z,78.69
2022-10-19T08:53:38.378Z,78.65
2022-10-19T08:56:38.838Z,78.56
2022-10-19T08:59:15.107Z,78.86
2022-10-19T09:01:50.758Z,78.95
2022-10-19T09:04:24.818Z,79.06
2022-10-19T09:07:22.618Z,78.74
2022-10-19T09:09:52.241Z,78.57
2022-10-19T09:12:25.869Z,78.49
2022-10-19T09:15:00.632Z,78.74
2022-10-19T09:17:29.259Z,78.62
2022-10-19T09:19:57.834Z,78.57
2022-10-19T09:22:32.188Z,78.70
2022-10-19T09:25:04.244Z,78.70
2022-10-19T09:27:37.366Z,78.60
2022-10-19T09:30:15.623Z,78.70
2022-10-19T09:32:43.380Z,78.46
2022-10-19T09:35:23.046Z,78.28
2022-10-19T09:37:52.522Z,77.74
2022-10-19T09:40:22.501Z,77.71
2022-10-19T09:42:56.838Z,77.13
2022-10-19T09:45:36.813Z,76.71
2022-10-19T09:48:17.682Z,76.74
2022-10-19T09:50:46.233Z,76.34
2022-10-19T09:53:20.597Z,76.85
2022-10-19T09:55:52.232Z,77.19
2022-10-19T09:58:21.250Z,76.58
2022-10-19T10:00:54.800Z,76.44
2022-10-19T10:03:28.403Z,76.73
2022-10-19T10:05:58.633Z,76.77
2022-10-19T10:08:28.454Z,76.53
2022-10-19T10:11:02.445Z,75.21
2022-10-19T10:13:30.092Z,75.78
2022-10-19T10:16:02.356Z,75.79
2022-10-19T10:18:30.817Z,76.06
2022-10-19T10:21:01.891Z,76.27
2022-10-19T10:23:32.496Z,76.18
2022-10-19T10:26:01.586Z,76.34
2022-10-19T10:28:31.095Z,76.33
2022-10-19T10:31:04.552Z,76.40
2022-10-19T10:36:25.816Z,76.06
2022-10-19T10:39:04.328Z,75.84
2022-10-19T10:41:37.957Z,75.72
2022-10-19T10:44:09.651Z,75.37
2022-10-19T10:46:47.097Z,74.84
2022-10-19T10:49:22.100Z,74.87
2022-10-19T10:51:53.728Z,75.08
2022-10-19T10:54:22.982Z,74.34
2022-10-19T10:57:06.317Z,73.40
2022-10-19T10:59:41.740Z,74.01
2022-10-19T11:05:02.860Z,72.05
2022-10-19T11:07:33.891Z,71.42
2022-10-19T11:10:09.752Z,71.69
2022-10-19T11:12:40.783Z,72.21
2022-10-19T11:15:18.610Z,72.28
2022-10-19T11:17:56.655Z,72.90
2022-10-19T11:20:28.879Z,73.00
2022-10-19T11:23:07.831Z,72.42
2022-10-19T11:25:47.055Z,71.98
2022-10-19T11:28:27.734Z,72.61
2022-10-19T11:31:02.297Z,73.07
2022-10-19T11:33:48.731Z,71.45
2022-10-19T11:36:30.978Z,71.58
2022-10-19T11:39:22.709Z,72.31
2022-10-19T11:42:01.324Z,72.68
2022-10-19T11:44:42.566Z,72.65
2022-10-19T11:47:35.057Z,72.91
2022-10-19T11:50:20.498Z,71.87
2022-10-19T11:52:55.916Z,72.18
2022-10-19T11:55:34.310Z,70.64
2022-10-19T11:58:13.446Z,70.96
2022-10-19T12:00:50.216Z,70.90
2022-10-19T12:03:42.056Z,70.97
2022-10-19T12:06:18.639Z,69.87
2022-10-19T12:09:03.030Z,70.02
2022-10-19T12:11:44.227Z,69.44
2022-10-19T12:14:16.789Z,69.20
2022-10-19T12:16:49.702Z,68.91
2022-10-19T12:19:21.164Z,69.31
2022-10-19T12:21:52.065Z,69.72
2022-10-19T12:24:24.530Z,69.72
2022-10-19T12:26:54.822Z,69.23
2022-10-19T12:29:25.797Z,69.02
2022-10-19T12:31:55.399Z,69.28
2022-10-19T12:34:32.328Z,69.28
2022-10-19T12:37:08.671Z,69.60
2022-10-19T12:39:44.141Z,68.36
2022-10-19T12:42:22.623Z,67.26
2022-10-19T12:45:22.620Z,66.72
2022-10-19T12:48:20.794Z,68.02
2022-10-19T12:51:13.443Z,67.57
2022-10-19T12:53:46.981Z,68.18
2022-10-19T12:56:19.799Z,68.72
2022-10-19T12:58:54.977Z,68.89
2022-10-19T13:01:26.555Z,68.88
2022-10-19T13:04:08.544Z,69.23
2022-10-19T13:06:38.252Z,69.44
2022-10-19T13:09:10.161Z,68.60
2022-10-19T13:11:57.870Z,68.97
2022-10-19T13:14:47.971Z,69.36
2022-10-19T13:17:40.776Z,69.12
2022-10-19T13:20:49.108Z,69.82
2022-10-19T13:23:39.958Z,69.46
2022-10-19T13:26:32.410Z,69.65
2022-10-19T13:29:00.817Z,68.52
2022-10-19T13:31:30.379Z,68.58
2022-10-19T13:33:58.689Z,67.81
2022-10-19T13:36:27.191Z,68.15
2022-10-19T13:39:15.360Z,67.16
2022-10-19T13:41:53.827Z,67.67
2022-10-19T13:44:25.902Z,68.19
2022-10-19T13:47:21.716Z,68.56
2022-10-19T13:50:07.449Z,68.86
2022-10-19T13:53:08.383Z,68.80
2022-10-19T13:56:00.482Z,68.73
2022-10-19T13:58:58.991Z,67.53
2022-10-19T14:01:40.372Z,66.88
2022-10-19T14:04:20.718Z,66.92
2022-10-19T14:06:53.507Z,67.31
2022-10-19T14:09:45.563Z,67.75
2022-10-19T14:12:19.614Z,67.27
2022-10-19T14:14:48.550Z,66.65
2022-10-19T14:19:54.238Z,67.11
2022-10-19T14:22:26.794Z,66.66
2022-10-19T14:25:02.458Z,66.70
2022-10-19T14:27:31.491Z,66.07
2022-10-19T14:30:00.811Z,66.02
2022-10-19T14:32:30.413Z,65.64
2022-10-19T14:37:37.845Z,64.74
2022-10-19T14:40:09.591Z,64.51
2022-10-19T14:42:42.968Z,64.90
2022-10-19T14:45:15.559Z,63.85
2022-10-19T14:47:54.057Z,64.40
2022-10-19T14:50:25.302Z,64.71
2022-10-19T14:52:58.278Z,65.15
2022-10-19T14:55:31.937Z,65.42
2022-10-19T14:57:59.825Z,65.81
2022-10-19T15:00:32.736Z,66.19
2022-10-19T15:03:03.270Z,66.27
2022-10-19T15:05:34.041Z,65.61
2022-10-19T15:08:08.752Z,65.62
2022-10-19T15:10:43.593Z,65.49
2022-10-19T15:13:22.755Z,65.81
2022-10-19T15:15:54.550Z,66.55
2022-10-19T15:18:47.531Z,66.60
2022-10-19T15:21:15.111Z,66.85
2022-10-19T15:23:44.635Z,67.15
2022-10-19T15:26:20.237Z,66.95
2022-10-19T15:28:48.863Z,67.06
2022-10-19T15:31:20.713Z,67.12
2022-10-19T15:33:51.647Z,67.08
2022-10-19T15:36:20.574Z,67.01
2022-10-19T15:38:50.476Z,66.97
2022-10-19T15:41:21.532Z,66.96
2022-10-19T15:43:52.724Z,66.90
2022-10-19T15:46:32.047Z,66.99
2022-10-19T15:49:04.253Z,67.18
2022-10-19T15:51:49.586Z,67.03
2022-10-19T15:54:19.139Z,66.82
2022-10-19T15:56:48.381Z,67.04
2022-10-19T15:59:17.985Z,67.18
2022-10-19T16:01:52.449Z,67.01
2022-10-19T16:04:22.799Z,66.94
2022-10-19T16:06:50.554Z,67.04
2022-10-19T16:09:20.971Z,67.10
2022-10-19T16:11:50.142Z,67.19
2022-10-19T16:16:51.668Z,66.98
2022-10-19T16:19:19.276Z,67.19
2022-10-19T16:21:50.127Z,67.25
2022-10-19T16:24:18.070Z,67.39
2022-10-19T16:26:45.661Z,67.32
2022-10-19T16:29:13.226Z,67.21
2022-10-19T16:31:40.758Z,67.46
2022-10-19T16:34:10.073Z,67.23
2022-10-19T16:36:37.753Z,66.99
2022-10-19T16:39:05.380Z,67.09
2022-10-19T16:41:33.087Z,67.22
2022-10-19T16:44:00.668Z,67.39
2022-10-19T16:46:28.263Z,67.54
2022-10-19T16:48:55.879Z,67.23
2022-10-19T16:51:31.057Z,67.25
2022-10-19T16:53:59.009Z,67.36
2022-10-19T16:56:29.298Z,67.36
2022-10-19T16:58:59.661Z,67.57
2022-10-19T17:01:28.498Z,67.62
2022-10-19T17:03:56.765Z,67.98
2022-10-19T17:06:25.017Z,67.63
2022-10-19T17:11:44.013Z,67.31
2022-10-19T17:14:13.553Z,67.54
2022-10-19T17:16:41.632Z,67.79
2022-10-19T17:19:11.444Z,68.32
2022-10-19T17:21:42.088Z,68.25
2022-10-19T17:24:20.169Z,68.31
2022-10-19T17:26:50.683Z,68.81
2022-10-19T17:29:18.567Z,68.48
2022-10-19T17:31:46.192Z,68.93
2022-10-19T17:34:13.901Z,67.87
2022-10-19T17:36:44.291Z,67.25
2022-10-19T17:39:17.691Z,66.71
2022-10-19T17:41:46.161Z,67.20
2022-10-19T17:44:14.175Z,67.30
2022-10-19T17:46:41.937Z,66.81
2022-10-19T17:49:10.248Z,66.85
2022-10-19T17:51:39.012Z,65.22
2022-10-19T17:54:08.698Z,65.20
2022-10-19T17:56:39.220Z,65.21
2022-10-19T17:59:08.789Z,65.16
2022-10-19T18:01:37.919Z,65.58
2022-10-19T18:04:06.467Z,65.45
2022-10-19T18:06:36.304Z,66.21
2022-10-19T18:09:06.453Z,67.11
2022-10-19T18:11:38.454Z,66.92
2022-10-19T18:14:09.262Z,66.65
2022-10-19T18:16:39.626Z,66.86
2022-10-19T18:19:08.172Z,66.67
2022-10-19T18:21:38.438Z,66.38
2022-10-19T18:24:09.065Z,66.61
2022-10-19T18:26:40.329Z,67.24
2022-10-19T18:29:13.646Z,66.99
2022-10-19T18:31:41.657Z,66.36
2022-10-19T18:34:13.519Z,66.41
2022-10-19T18:36:41.167Z,66.32
2022-10-19T18:39:08.886Z,66.71
2022-10-19T18:41:37.162Z,67.12
2022-10-19T18:44:06.866Z,67.26
2022-10-19T18:46:37.575Z,67.24
2022-10-19T18:49:08.471Z,67.42
2022-10-19T18:51:36.491Z,68.08
2022-10-19T18:54:04.283Z,67.56
2022-10-19T18:56:33.319Z,67.67
2022-10-19T18:59:00.925Z,68.36
2022-10-19T19:01:29.838Z,68.17
2022-10-19T19:04:06.521Z,68.69
2022-10-19T19:06:36.054Z,68.41
2022-10-19T19:09:06.404Z,68.47
2022-10-19T19:11:37.372Z,67.62
2022-10-19T19:14:07.641Z,67.89
2022-10-19T19:16:36.907Z,67.38
2022-10-19T19:19:06.776Z,67.79
2022-10-19T19:21:36.424Z,67.90
2022-10-19T19:24:06.270Z,67.88
2022-10-19T19:26:36.535Z,68.21
2022-10-19T19:29:04.674Z,68.16
2022-10-19T19:31:32.298Z,67.96
2022-10-19T19:34:01.434Z,67.67
2022-10-19T19:36:30.489Z,67.93
2022-10-19T19:38:59.138Z,68.21
2022-10-19T19:41:28.803Z,68.28
2022-10-19T19:43:57.491Z,68.67
2022-10-19T19:46:25.141Z,68.79
2022-10-19T19:48:59.902Z,68.73
2022-10-19T19:51:28.725Z,69.08
2022-10-19T19:53:57.970Z,69.07
2022-10-19T19:56:25.758Z,69.19
2022-10-19T19:58:55.925Z,69.29
2022-10-19T20:01:24.033Z,69.33
2022-10-19T20:03:51.943Z,69.20
2022-10-19T20:06:25.006Z,69.71
2022-10-19T20:08:53.855Z,69.24
2022-10-19T20:11:24.226Z,69.54
2022-10-19T20:13:51.927Z,69.50
2022-10-19T20:16:25.282Z,70.00
2022-10-19T20:18:57.647Z,70.07
2022-10-19T20:21:27.190Z,69.93
2022-10-19T20:23:54.747Z,70.14
2022-10-19T20:26:25.088Z,70.32
2022-10-19T20:28:53.392Z,70.05
2022-10-19T20:31:21.436Z,70.11
2022-10-19T20:33:49.583Z,70.22
2022-10-19T20:36:19.020Z,70.71
2022-10-19T20:38:48.874Z,69.95
2022-10-19T20:41:17.549Z,70.25
2022-10-19T20:43:46.990Z,70.59
2022-10-19T20:46:17.682Z,71.03
2022-10-19T20:48:45.967Z,70.90
2022-10-19T20:51:15.767Z,70.83
2022-10-19T20:53:46.181Z,71.44
2022-10-19T20:56:15.629Z,71.22
2022-10-19T20:58:44.867Z,71.47
2022-10-19T21:01:15.806Z,71.46
2022-10-19T21:03:46.935Z,71.38
2022-10-19T21:06:14.589Z,71.53
2022-10-19T21:08:42.555Z,71.50
2022-10-19T21:11:14.443Z,71.44
2022-10-19T21:13:42.572Z,71.49
2022-10-19T21:16:11.313Z,71.63
2022-10-19T21:18:40.446Z,71.90
2022-10-19T21:21:13.287Z,71.63
2022-10-19T21:23:41.067Z,71.82
2022-10-19T21:26:08.764Z,72.08
2022-10-19T21:28:36.413Z,72.03
2022-10-19T21:31:05.179Z,71.98
2022-10-19T21:33:32.824Z,71.94
2022-10-19T21:36:03.437Z,72.33
2022-10-19T21:38:31.492Z,72.52
2022-10-19T21:40:59.706Z,72.31
2022-10-19T21:43:28.040Z,72.24
2022-10-19T21:45:55.761Z,72.62
2022-10-19T21:48:24.389Z,72.50
2022-10-19T21:50:51.974Z,72.90
2022-10-19T21:53:22.554Z,73.14
2022-10-19T21:55:50.967Z,72.98
2022-10-19T21:58:21.492Z,72.80
2022-10-19T22:00:49.464Z,72.76
2022-10-19T22:03:18.978Z,73.01
2022-10-19T22:05:53.287Z,73.04
2022-10-19T22:08:22.291Z,73.03
2022-10-19T22:10:49.899Z,73.10
2022-10-19T22:13:17.735Z,73.32
2022-10-19T22:15:45.584Z,73.33
2022-10-19T22:18:13.235Z,73.32
2022-10-19T22:20:41.767Z,73.22
2022-10-19T22:23:09.498Z,73.22
2022-10-19T22:25:38.442Z,73.52
2022-10-19T22:28:06.089Z,73.33
2022-10-19T22:30:33.779Z,73.44
2022-10-19T22:33:01.456Z,73.48
2022-10-19T22:35:29.157Z,73.62
2022-10-19T22:37:56.747Z,73.23
2022-10-19T22:40:24.334Z,73.19
2022-10-19T22:42:53.310Z,73.18
2022-10-19T22:45:20.894Z,73.20
2022-10-19T22:47:48.620Z,73.12
2022-10-19T22:50:18.644Z,72.71
2022-10-19T22:52:46.229Z,72.73
2022-10-19T22:55:13.845Z,72.87
2022-10-19T22:57:41.486Z,73.29
2022-10-19T23:00:12.132Z,73.51
2022-10-19T23:02:39.723Z,73.40
2022-10-19T23:05:07.842Z,73.64
2022-10-19T23:07:37.586Z,73.57
2022-10-19T23:10:06.124Z,73.57
2022-10-19T23:12:33.811Z,73.72
2022-10-19T23:15:01.431Z,73.97
2022-10-19T23:17:30.485Z,74.00
2022-10-19T23:19:58.082Z,74.18
2022-10-19T23:22:25.685Z,74.13
2022-10-19T23:24:53.281Z,73.44
2022-10-19T23:27:21.198Z,73.56
2022-10-19T23:29:48.800Z,72.99
2022-10-19T23:32:16.438Z,73.15
2022-10-19T23:34:47.561Z,72.83
2022-10-19T23:37:16.200Z,73.11
2022-10-19T23:39:43.803Z,73.50
2022-10-19T23:42:11.417Z,73.64
2022-10-19T23:44:39.012Z,73.80
2022-10-19T23:47:06.716Z,74.06
2022-10-19T23:49:34.315Z,73.79
2022-10-19T23:52:03.311Z,73.46
2022-10-19T23:54:30.863Z,74.34
2022-10-19T23:56:58.940Z,74.05
2022-10-19T23:59:26.628Z,73.60
